Etusivu
METAR-TAF:

METAR-TAF

Lentoasemat :

Tozeur, Tunisia

Leveyspiiri: 33-55N, Pituuspiiri: 008-06E, korkeus merenpinnasta: 87 m

Tämänhetkinen sää

Tämä raportti tehtiin 48 minuuttia sitten, kello 03.00 UTC
Tuuli 5 kn pohjoisen/luoteesta
Lämpötila 14°C
Kosteus 58%
Ilmanpaine 1018 hPa

METAR: DTTZ 050300Z AUTO 33005KT NCD 14/06 Q1018

Aika: 04:48 (03:48 UTC)

Sääennuste

Tämä raportti tehtiin 4 tuntia ja 48 minuuttia sitten, kello 23.00 UTC
Ennuste voimassa 05. päivästä klo 00 UTC - 05. päivään klo 24 UTC
Tuuli 6 kn etelästä/lounaasta
Näkyvyys 10 km tai enemmän
Muutamia pilviä 3000 ft:n korkeudessa
Tulossa
05. päivästä klo 02 UTC - 05. päivään klo 04 UTC
Tuuli 10 kn idästä
Tulossa
05. päivästä klo 10 UTC - 05. päivään klo 12 UTC
Tuuli 4 kn etelästä/lounaasta

TAF: DTTZ 042300Z 0500/0524 21006KT 9999 FEW030 BECMG 0502/0504 09010KT BECMG 0510/0512 20004KT

Säähavainnot ja -ennusteet yli 4000 lentoasemalta (METAR- ja TAF-raportit).

Käytössä olevat sääasemat on merkitty karttaan keltaisilla ja punaisilla pisteillä.

Aseta hiiri pisteen päälle nähdäksesi sääaseman nimen.

Klikkaa sitten nähdäksesi säähavainnot ja -ennusteet.

Kartan vaihtaminen: klikkaa mustalla rastilla varustettuja vihreitä pisteitä, niin voit zoomata sisään; viivalla varustettua vihreää pistettä, niin voit zoomata ulos tai vihreitä nuolia, niin pääset viereisille kartoille.


METAR-TAF: